Main page
METAR-TAF:

Airports :

Warsaw, Poland

Warsaw Chopin Airport

latitude: 52-10N, longitude: 020-58E, elevation: 106 m

Current weather observation

The report was made 32 minutes ago, at 12:30 UTC
Wind 5 kt from the North, varying between West and East/Northeast
Temperature 24°C
Humidity 57%
Pressure 1019 hPa
Visibility 10 km or more
Broken clouds at a height of 4000 ft

METAR: EPWA 231230Z 35005KT 260V070 9999 BKN040 24/15 Q1019 NOSIG

Time: 15:02 (13:02 UTC)

Forecast

The report was made 1 hour and 32 minutes ago, at 11:30 UTC
Forecast valid from 23 at 12 UTC to 24 at 12 UTC
Wind 5 kt from the North
Visibility 10 km or more
Broken clouds at a height of 4000 ft
Probability 40%
from 24 at 03 UTC to 24 at 05 UTC
Visibility: 3000 m
mist

TAF: EPWA 231130Z 2312/2412 35005KT 9999 BKN040 PROB40 2403/2405 3000 BR

METAR-TAF

Weather observations and forecasts of more than 4000 airports (METAR and TAF reports).

The available stations are represented by yellow and red dots on the map.

Hover mouse over dot to see the name of the station.

Then click to see weather observations and forecasts.

To change the map : click on the green buttons with a black cross to zoom in, on the green button with a dash to zoom out, or on the green arrows for adjacent maps.


METAR-TAF: